createdAt,value
2016-05-26T00:00:05.965Z,1011.9
2016-05-26T00:00:15.652Z,1011.89
2016-05-26T00:00:25.965Z,1011.96
2016-05-26T00:00:35.949Z,1011.92
2016-05-26T00:00:45.949Z,1011.88
2016-05-26T00:00:55.795Z,1011.87
2016-05-26T00:01:05.936Z,1011.88
2016-05-26T00:01:15.936Z,1011.85
2016-05-26T00:01:25.920Z,1011.86
2016-05-26T00:01:35.920Z,1011.87
2016-05-26T00:01:45.920Z,1011.9
2016-05-26T00:01:55.907Z,1011.89
2016-05-26T00:02:05.907Z,1011.88
2016-05-26T00:02:15.907Z,1011.86
2016-05-26T00:02:25.892Z,1011.88
2016-05-26T00:02:36.907Z,1011.82
2016-05-26T00:02:46.095Z,1011.85
2016-05-26T00:02:56.269Z,1011.9
2016-05-26T00:03:05.878Z,1011.84
2016-05-26T00:03:15.878Z,1011.86
2016-05-26T00:03:25.987Z,1011.85
2016-05-26T00:03:35.862Z,1011.85
2016-05-26T00:03:45.722Z,1011.87
2016-05-26T00:03:55.851Z,1011.87
2016-05-26T00:04:05.695Z,1011.87
2016-05-26T00:04:15.851Z,1011.87
2016-05-26T00:04:25.679Z,1011.85
2016-05-26T00:04:35.835Z,1011.9
2016-05-26T00:04:45.820Z,1011.83
2016-05-26T00:04:55.820Z,1011.87
2016-05-26T00:05:05.822Z,1011.87
2016-05-26T00:05:15.806Z,1011.89
2016-05-26T00:05:25.665Z,1011.87
2016-05-26T00:05:35.806Z,1011.85
2016-05-26T00:05:45.806Z,1011.88
2016-05-26T00:05:55.634Z,1011.85
2016-05-26T00:06:05.778Z,1011.87
2016-05-26T00:06:15.793Z,1011.88
2016-05-26T00:06:25.621Z,1011.9
2016-05-26T00:06:35.778Z,1011.86
2016-05-26T00:06:45.762Z,1011.86
2016-05-26T00:06:55.606Z,1011.87
2016-05-26T00:07:05.764Z,1011.88
2016-05-26T00:07:15.764Z,1011.89
2016-05-26T00:07:25.748Z,1011.88
2016-05-26T00:07:35.733Z,1011.89
2016-05-26T00:07:45.733Z,1011.88
2016-05-26T00:07:55.733Z,1011.92
2016-05-26T00:08:05.720Z,1011.89
2016-05-26T00:08:15.720Z,1011.86
2016-05-26T00:08:25.720Z,1011.89
2016-05-26T00:08:35.705Z,1011.89
2016-05-26T00:08:45.705Z,1011.88
2016-05-26T00:08:55.705Z,1011.87
2016-05-26T00:09:05.551Z,1011.88
2016-05-26T00:09:15.536Z,1011.92
2016-05-26T00:09:25.692Z,1011.89
2016-05-26T00:09:35.676Z,1011.91
2016-05-26T00:09:45.676Z,1011.89
2016-05-26T00:09:55.676Z,1011.87
2016-05-26T00:10:05.663Z,1011.93
2016-05-26T00:10:15.350Z,1011.91
2016-05-26T00:10:25.647Z,1011.89
2016-05-26T00:10:35.491Z,1011.86
2016-05-26T00:10:45.647Z,1011.91
2016-05-26T00:10:55.631Z,1011.92
2016-05-26T00:11:05.494Z,1011.92
2016-05-26T00:11:15.634Z,1011.9
2016-05-26T00:11:25.619Z,1011.9
2016-05-26T00:11:35.463Z,1011.88
2016-05-26T00:11:45.603Z,1011.89
2016-05-26T00:11:55.603Z,1011.9
2016-05-26T00:12:05.449Z,1011.9
2016-05-26T00:12:15.590Z,1011.9
2016-05-26T00:12:25.590Z,1011.95
2016-05-26T00:12:35.590Z,1011.92
2016-05-26T00:12:45.574Z,1011.93
2016-05-26T00:12:55.433Z,1011.91
2016-05-26T00:13:05.561Z,1011.91
2016-05-26T00:13:15.264Z,1011.92
2016-05-26T00:13:25.561Z,1011.92
2016-05-26T00:13:35.561Z,1011.92
2016-05-26T00:13:45.389Z,1011.89
2016-05-26T00:13:55.546Z,1011.93
2016-05-26T00:14:05.393Z,1011.92
2016-05-26T00:14:15.534Z,1011.9
2016-05-26T00:14:25.534Z,1011.88
2016-05-26T00:14:35.534Z,1011.9
2016-05-26T00:14:45.378Z,1011.92
2016-05-26T00:14:55.362Z,1011.92
2016-05-26T00:15:05.520Z,1011.92
2016-05-26T00:15:15.520Z,1011.95
2016-05-26T00:15:25.505Z,1011.92
2016-05-26T00:15:35.505Z,1011.91
2016-05-26T00:15:45.489Z,1011.95
2016-05-26T00:15:55.333Z,1011.95
2016-05-26T00:16:05.492Z,1011.94
2016-05-26T00:16:15.492Z,1011.89
2016-05-26T00:16:25.477Z,1011.92
2016-05-26T00:16:35.461Z,1011.95
2016-05-26T00:16:45.461Z,1011.93
2016-05-26T00:16:55.461Z,1011.96
2016-05-26T00:17:05.447Z,1011.94
2016-05-26T00:17:15.447Z,1011.93
2016-05-26T00:17:25.291Z,1011.94
2016-05-26T00:17:35.525Z,1011.96
2016-05-26T00:17:45.650Z,1011.9
2016-05-26T00:17:55.432Z,1011.93
2016-05-26T00:18:05.919Z,1011.94
2016-05-26T00:18:15.482Z,1011.96
2016-05-26T00:18:25.403Z,1011.94
2016-05-26T00:18:35.403Z,1011.91
2016-05-26T00:18:45.403Z,1011.96
2016-05-26T00:18:55.403Z,1011.99
2016-05-26T00:19:05.406Z,1011.94
2016-05-26T00:19:15.391Z,1011.94
2016-05-26T00:19:25.391Z,1011.94
2016-05-26T00:19:35.391Z,1011.94
2016-05-26T00:19:45.360Z,1011.96
2016-05-26T00:19:55.360Z,1011.93
2016-05-26T00:20:05.363Z,1011.93
2016-05-26T00:20:15.206Z,1011.94
2016-05-26T00:20:25.347Z,1011.94
2016-05-26T00:20:35.191Z,1011.94
2016-05-26T00:20:45.034Z,1011.91
2016-05-26T00:20:55.331Z,1011.94
2016-05-26T00:21:05.333Z,1011.95
2016-05-26T00:21:15.193Z,1011.94
2016-05-26T00:21:25.318Z,1011.94
2016-05-26T00:21:35.318Z,1011.91
2016-05-26T00:21:45.302Z,1011.92
2016-05-26T00:21:55.302Z,1011.91
2016-05-26T00:22:05.305Z,1011.91
2016-05-26T00:22:15.289Z,1011.93
2016-05-26T00:22:25.149Z,1011.94
2016-05-26T00:22:35.289Z,1011.92
2016-05-26T00:22:45.289Z,1011.9
2016-05-26T00:22:55.274Z,1011.91
2016-05-26T00:23:05.261Z,1011.89
2016-05-26T00:23:15.261Z,1011.9
2016-05-26T00:23:25.261Z,1011.88
2016-05-26T00:23:35.261Z,1011.94
2016-05-26T00:23:45.261Z,1011.91
2016-05-26T00:23:55.246Z,1011.92
2016-05-26T00:24:05.248Z,1011.89
2016-05-26T00:24:15.263Z,1011.87
2016-05-26T00:24:25.076Z,1011.9
2016-05-26T00:24:35.232Z,1011.86
2016-05-26T00:24:45.279Z,1011.88
2016-05-26T00:24:55.232Z,1011.91
2016-05-26T00:25:05.235Z,1011.87
2016-05-26T00:25:15.235Z,1011.91
2016-05-26T00:25:25.219Z,1011.88
2016-05-26T00:25:35.204Z,1011.92
2016-05-26T00:25:45.188Z,1011.86
2016-05-26T00:25:55.188Z,1011.87
2016-05-26T00:26:05.034Z,1011.89
2016-05-26T00:26:15.159Z,1011.88
2016-05-26T00:26:25.190Z,1011.88
2016-05-26T00:26:35.018Z,1011.85
2016-05-26T00:26:45.174Z,1011.85
2016-05-26T00:26:55.143Z,1011.88
2016-05-26T00:27:05.146Z,1011.88
2016-05-26T00:27:15.146Z,1011.86
2016-05-26T00:27:24.974Z,1011.91
2016-05-26T00:27:35.131Z,1011.88
2016-05-26T00:27:45.131Z,1011.83
2016-05-26T00:27:55.115Z,1011.84
2016-05-26T00:28:05.134Z,1011.84
2016-05-26T00:28:15.102Z,1011.85
2016-05-26T00:28:25.102Z,1011.88
2016-05-26T00:28:35.102Z,1011.87
2016-05-26T00:28:44.962Z,1011.87
2016-05-26T00:28:55.102Z,1011.86
2016-05-26T00:29:05.089Z,1011.86
2016-05-26T00:29:15.089Z,1011.85
2016-05-26T00:29:25.073Z,1011.85
2016-05-26T00:29:35.073Z,1011.85
2016-05-26T00:29:45.089Z,1011.86
2016-05-26T00:29:55.057Z,1011.82
2016-05-26T00:30:04.904Z,1011.83
2016-05-26T00:30:15.060Z,1011.83
2016-05-26T00:30:25.045Z,1011.86
2016-05-26T00:30:35.045Z,1011.85
2016-05-26T00:30:45.029Z,1011.87
2016-05-26T00:30:54.873Z,1011.85
2016-05-26T00:31:05.017Z,1011.88
2016-05-26T00:31:14.860Z,1011.86
2016-05-26T00:31:25.017Z,1011.82
2016-05-26T00:31:35.017Z,1011.82
2016-05-26T00:31:45.017Z,1011.85
2016-05-26T00:31:55.001Z,1011.86
2016-05-26T00:32:04.847Z,1011.85
2016-05-26T00:32:15.003Z,1011.85
2016-05-26T00:32:24.909Z,1011.84
2016-05-26T00:32:35.003Z,1011.88
2016-05-26T00:32:44.972Z,1011.87
2016-05-26T00:32:55.909Z,1011.88
2016-05-26T00:33:05.240Z,1011.87
2016-05-26T00:33:14.943Z,1011.88
2016-05-26T00:33:24.818Z,1011.85
2016-05-26T00:33:34.943Z,1011.87
2016-05-26T00:33:44.943Z,1011.89
2016-05-26T00:33:54.928Z,1011.84
2016-05-26T00:34:04.790Z,1011.85
2016-05-26T00:34:14.931Z,1011.85
2016-05-26T00:34:24.931Z,1011.83
2016-05-26T00:34:34.915Z,1011.81
2016-05-26T00:34:44.915Z,1011.85
2016-05-26T00:34:54.915Z,1011.85
2016-05-26T00:35:04.918Z,1011.81
2016-05-26T00:35:14.903Z,1011.85
2016-05-26T00:35:24.903Z,1011.85
2016-05-26T00:35:34.903Z,1011.82
2016-05-26T00:35:44.871Z,1011.84
2016-05-26T00:35:54.871Z,1011.85
2016-05-26T00:36:04.874Z,1011.82
2016-05-26T00:36:14.874Z,1011.86
2016-05-26T00:36:24.718Z,1011.82
2016-05-26T00:36:34.859Z,1011.84
2016-05-26T00:36:44.859Z,1011.83
2016-05-26T00:36:54.702Z,1011.83
2016-05-26T00:37:04.690Z,1011.85
2016-05-26T00:37:14.846Z,1011.84
2016-05-26T00:37:24.830Z,1011.83
2016-05-26T00:37:34.674Z,1011.82
2016-05-26T00:37:44.830Z,1011.78
2016-05-26T00:37:54.830Z,1011.84
2016-05-26T00:38:04.817Z,1011.8
2016-05-26T00:38:14.817Z,1011.81
2016-05-26T00:38:24.645Z,1011.83
2016-05-26T00:38:34.661Z,1011.81
2016-05-26T00:38:44.801Z,1011.78
2016-05-26T00:38:54.786Z,1011.77
2016-05-26T00:39:04.789Z,1011.82
2016-05-26T00:39:14.632Z,1011.84
2016-05-26T00:39:24.773Z,1011.8
2016-05-26T00:39:34.617Z,1011.85
2016-05-26T00:39:44.601Z,1011.84
2016-05-26T00:39:54.757Z,1011.87
2016-05-26T00:40:04.759Z,1011.84
2016-05-26T00:40:14.744Z,1011.82
2016-05-26T00:40:24.744Z,1011.8
2016-05-26T00:40:34.744Z,1011.84
2016-05-26T00:40:44.744Z,1011.82
2016-05-26T00:40:54.744Z,1011.84
2016-05-26T00:41:04.715Z,1011.82
2016-05-26T00:41:14.715Z,1011.85
2016-05-26T00:41:24.715Z,1011.82
2016-05-26T00:41:34.715Z,1011.85
2016-05-26T00:41:44.544Z,1011.81
2016-05-26T00:41:54.700Z,1011.83
2016-05-26T00:42:04.687Z,1011.86
2016-05-26T00:42:14.687Z,1011.8
2016-05-26T00:42:24.687Z,1011.86
2016-05-26T00:42:34.687Z,1011.82
2016-05-26T00:42:44.672Z,1011.86
2016-05-26T00:42:54.672Z,1011.84
2016-05-26T00:43:04.658Z,1011.85
2016-05-26T00:43:14.502Z,1011.84
2016-05-26T00:43:24.642Z,1011.82
2016-05-26T00:43:34.642Z,1011.86
2016-05-26T00:43:44.642Z,1011.82
2016-05-26T00:43:54.627Z,1011.85
2016-05-26T00:44:04.630Z,1011.81
2016-05-26T00:44:14.630Z,1011.83
2016-05-26T00:44:24.630Z,1011.82
2016-05-26T00:44:34.458Z,1011.87
2016-05-26T00:44:44.614Z,1011.83
2016-05-26T00:44:54.598Z,1011.86
2016-05-26T00:45:04.460Z,1011.87
2016-05-26T00:45:14.600Z,1011.87
2016-05-26T00:45:24.600Z,1011.87
2016-05-26T00:45:34.585Z,1011.88
2016-05-26T00:45:44.600Z,1011.88
2016-05-26T00:45:54.585Z,1011.86
2016-05-26T00:46:04.572Z,1011.87
2016-05-26T00:46:14.416Z,1011.88
2016-05-26T00:46:24.557Z,1011.86
2016-05-26T00:46:34.557Z,1011.9
2016-05-26T00:46:44.541Z,1011.84
2016-05-26T00:46:54.541Z,1011.87
2016-05-26T00:47:04.544Z,1011.87
2016-05-26T00:47:14.544Z,1011.86
2016-05-26T00:47:24.403Z,1011.89
2016-05-26T00:47:34.747Z,1011.88
2016-05-26T00:47:44.747Z,1011.85
2016-05-26T00:47:55.138Z,1011.9
2016-05-26T00:48:04.516Z,1011.86
2016-05-26T00:48:14.375Z,1011.89
2016-05-26T00:48:25.047Z,1011.89
2016-05-26T00:48:34.516Z,1011.91
2016-05-26T00:48:44.500Z,1011.91
2016-05-26T00:48:54.469Z,1011.85
2016-05-26T00:49:04.486Z,1011.92
2016-05-26T00:49:14.471Z,1011.91
2016-05-26T00:49:24.471Z,1011.89
2016-05-26T00:49:34.471Z,1011.88
2016-05-26T00:49:44.455Z,1011.92
2016-05-26T00:49:54.455Z,1011.86
2016-05-26T00:50:04.443Z,1011.91
2016-05-26T00:50:14.443Z,1011.9
2016-05-26T00:50:24.443Z,1011.89
2016-05-26T00:50:34.443Z,1011.89
2016-05-26T00:50:44.443Z,1011.91
2016-05-26T00:50:54.427Z,1011.86
2016-05-26T00:51:04.414Z,1011.93
2016-05-26T00:51:14.414Z,1011.88
2016-05-26T00:51:24.399Z,1011.87
2016-05-26T00:51:34.399Z,1011.9
2016-05-26T00:51:44.399Z,1011.91
2016-05-26T00:51:54.399Z,1011.94
2016-05-26T00:52:04.385Z,1011.94
2016-05-26T00:52:14.385Z,1011.94
2016-05-26T00:52:24.385Z,1011.92
2016-05-26T00:52:34.229Z,1011.92
2016-05-26T00:52:44.369Z,1011.93
2016-05-26T00:52:54.369Z,1011.9
2016-05-26T00:53:04.357Z,1011.94
2016-05-26T00:53:14.357Z,1011.92
2016-05-26T00:53:24.341Z,1011.97
2016-05-26T00:53:34.185Z,1011.97
2016-05-26T00:53:44.341Z,1011.92
2016-05-26T00:53:54.341Z,1011.93
2016-05-26T00:54:04.360Z,1011.92
2016-05-26T00:54:14.313Z,1011.94
2016-05-26T00:54:24.329Z,1011.9
2016-05-26T00:54:34.313Z,1011.93
2016-05-26T00:54:44.297Z,1011.94
2016-05-26T00:54:54.297Z,1011.95
2016-05-26T00:55:04.299Z,1011.93
2016-05-26T00:55:14.299Z,1012
2016-05-26T00:55:24.284Z,1011.95
2016-05-26T00:55:34.284Z,1011.99
2016-05-26T00:55:44.284Z,1011.94
2016-05-26T00:55:54.268Z,1011.91
2016-05-26T00:56:04.115Z,1011.97
2016-05-26T00:56:14.255Z,1011.95
2016-05-26T00:56:24.255Z,1011.92
2016-05-26T00:56:34.255Z,1011.94
2016-05-26T00:56:44.084Z,1011.96
2016-05-26T00:56:54.084Z,1011.94
2016-05-26T00:57:04.102Z,1011.94
2016-05-26T00:57:14.243Z,1011.92
2016-05-26T00:57:24.227Z,1011.96
2016-05-26T00:57:34.227Z,1011.94
2016-05-26T00:57:44.212Z,1011.94
2016-05-26T00:57:54.212Z,1011.92
2016-05-26T00:58:04.199Z,1011.95
2016-05-26T00:58:14.043Z,1011.95
2016-05-26T00:58:24.058Z,1011.94
2016-05-26T00:58:34.183Z,1011.94
2016-05-26T00:58:44.199Z,1011.94
2016-05-26T00:58:54.183Z,1011.95
2016-05-26T00:59:04.170Z,1011.92
2016-05-26T00:59:14.185Z,1011.96
2016-05-26T00:59:24.154Z,1011.95
2016-05-26T00:59:34.170Z,1011.94
2016-05-26T00:59:44.138Z,1011.97
2016-05-26T00:59:54.154Z,1011.95
2016-05-26T01:00:04.141Z,1011.94
2016-05-26T01:00:14.141Z,1011.94
2016-05-26T01:00:24.157Z,1011.94
2016-05-26T01:00:34.157Z,1011.96
2016-05-26T01:00:44.126Z,1011.96
2016-05-26T01:00:54.126Z,1011.93
2016-05-26T01:01:04.113Z,1011.97
2016-05-26T01:01:14.113Z,1011.95
2016-05-26T01:01:24.113Z,1011.94
2016-05-26T01:01:34.098Z,1011.95
2016-05-26T01:01:44.098Z,1011.95
2016-05-26T01:01:54.082Z,1011.96
2016-05-26T01:02:04.100Z,1011.98
2016-05-26T01:02:14.084Z,1011.96
2016-05-26T01:02:24.084Z,1011.97
2016-05-26T01:02:33.928Z,1011.96
2016-05-26T01:02:43.912Z,1011.94
2016-05-26T01:02:54.381Z,1011.98
2016-05-26T01:03:04.071Z,1011.98
2016-05-26T01:03:13.743Z,1011.97
2016-05-26T01:03:24.306Z,1011.95
2016-05-26T01:03:34.243Z,1011.93
2016-05-26T01:03:44.040Z,1011.96
2016-05-26T01:03:54.024Z,1011.93
2016-05-26T01:04:04.027Z,1011.95
2016-05-26T01:04:14.027Z,1012
2016-05-26T01:04:24.012Z,1011.99
2016-05-26T01:04:34.012Z,1011.97
2016-05-26T01:04:43.996Z,1011.97
2016-05-26T01:04:53.996Z,1011.95
2016-05-26T01:05:03.859Z,1011.96
2016-05-26T01:05:13.843Z,1011.99
2016-05-26T01:05:23.843Z,1011.96
2016-05-26T01:05:33.984Z,1011.96
2016-05-26T01:05:43.968Z,1011.98
2016-05-26T01:05:53.827Z,1012.01
2016-05-26T01:06:03.954Z,1012
2016-05-26T01:06:13.970Z,1011.99
2016-05-26T01:06:23.954Z,1011.99
2016-05-26T01:06:33.970Z,1012
2016-05-26T01:06:43.939Z,1011.99
2016-05-26T01:06:53.939Z,1011.97
2016-05-26T01:07:03.926Z,1011.94
2016-05-26T01:07:13.926Z,1012
2016-05-26T01:07:23.926Z,1011.98
2016-05-26T01:07:33.910Z,1011.93
2016-05-26T01:07:43.926Z,1011.97
2016-05-26T01:07:53.910Z,1011.95
2016-05-26T01:08:03.897Z,1011.99
2016-05-26T01:08:13.897Z,1011.99
2016-05-26T01:08:23.881Z,1012.02
2016-05-26T01:08:33.897Z,1012
2016-05-26T01:08:43.881Z,1011.99
2016-05-26T01:08:53.709Z,1011.98
2016-05-26T01:09:03.884Z,1011.99
2016-05-26T01:09:13.869Z,1011.95
2016-05-26T01:09:23.712Z,1011.96
2016-05-26T01:09:33.853Z,1011.95
2016-05-26T01:09:43.853Z,1011.94
2016-05-26T01:09:53.837Z,1011.98
2016-05-26T01:10:03.840Z,1012.01
2016-05-26T01:10:13.840Z,1011.99
2016-05-26T01:10:23.825Z,1011.96
2016-05-26T01:10:33.825Z,1011.97
2016-05-26T01:10:43.825Z,1011.97
2016-05-26T01:10:53.653Z,1012
2016-05-26T01:11:03.811Z,1011.99
2016-05-26T01:11:13.811Z,1012
2016-05-26T01:11:23.795Z,1011.95
2016-05-26T01:11:33.795Z,1011.96
2016-05-26T01:11:43.780Z,1011.92
2016-05-26T01:11:53.624Z,1011.99
2016-05-26T01:12:03.784Z,1011.98
2016-05-26T01:12:13.784Z,1012.01
2016-05-26T01:12:23.768Z,1011.99
2016-05-26T01:12:33.768Z,1012
2016-05-26T01:12:43.612Z,1012.01
2016-05-26T01:12:53.768Z,1011.99
2016-05-26T01:13:03.739Z,1011.96
2016-05-26T01:13:13.739Z,1011.99
2016-05-26T01:13:23.739Z,1011.99
2016-05-26T01:13:33.739Z,1011.99
2016-05-26T01:13:43.723Z,1011.97
2016-05-26T01:13:53.723Z,1012.01
2016-05-26T01:14:03.710Z,1011.99
2016-05-26T01:14:13.725Z,1011.99
2016-05-26T01:14:23.710Z,1012.01
2016-05-26T01:14:33.553Z,1011.99
2016-05-26T01:14:43.694Z,1011.97
2016-05-26T01:14:53.694Z,1012.03
2016-05-26T01:15:03.681Z,1012.04
2016-05-26T01:15:13.681Z,1012
2016-05-26T01:15:23.697Z,1011.97
2016-05-26T01:15:33.666Z,1012.04
2016-05-26T01:15:43.681Z,1012
2016-05-26T01:15:53.666Z,1012.04
2016-05-26T01:16:03.513Z,1012
2016-05-26T01:16:13.653Z,1012.02
2016-05-26T01:16:23.638Z,1012.02
2016-05-26T01:16:33.638Z,1012.03
2016-05-26T01:16:43.638Z,1011.99
2016-05-26T01:16:53.622Z,1012.04
2016-05-26T01:17:03.625Z,1011.97
2016-05-26T01:17:13.469Z,1012
2016-05-26T01:17:24.203Z,1011.99
2016-05-26T01:17:33.531Z,1012.01
2016-05-26T01:17:43.625Z,1011.97
2016-05-26T01:17:54.484Z,1011.96
2016-05-26T01:18:03.611Z,1011.97
2016-05-26T01:18:13.596Z,1011.99
2016-05-26T01:18:23.283Z,1011.93
2016-05-26T01:18:33.424Z,1011.98
2016-05-26T01:18:43.564Z,1011.98
2016-05-26T01:18:53.564Z,1011.97
2016-05-26T01:19:03.567Z,1012
2016-05-26T01:19:13.567Z,1011.99
2016-05-26T01:19:23.567Z,1011.99
2016-05-26T01:19:33.396Z,1011.98
2016-05-26T01:19:43.536Z,1011.98
2016-05-26T01:19:53.536Z,1011.95
2016-05-26T01:20:03.539Z,1011.97
2016-05-26T01:20:13.539Z,1011.99
2016-05-26T01:20:23.383Z,1011.95
2016-05-26T01:20:33.524Z,1011.93
2016-05-26T01:20:43.555Z,1011.94
2016-05-26T01:20:53.524Z,1011.94
2016-05-26T01:21:03.527Z,1011.96
2016-05-26T01:21:13.339Z,1011.98
2016-05-26T01:21:23.511Z,1011.96
2016-05-26T01:21:33.495Z,1011.94
2016-05-26T01:21:43.480Z,1011.98
2016-05-26T01:21:53.480Z,1011.96
2016-05-26T01:22:03.482Z,1011.97
2016-05-26T01:22:13.497Z,1011.99
2016-05-26T01:22:23.325Z,1012
2016-05-26T01:22:33.466Z,1011.95
2016-05-26T01:22:43.466Z,1011.98
2016-05-26T01:22:53.450Z,1011.95
2016-05-26T01:23:03.437Z,1011.94
2016-05-26T01:23:13.281Z,1011.99
2016-05-26T01:23:23.437Z,1011.98
2016-05-26T01:23:33.265Z,1011.97
2016-05-26T01:23:43.437Z,1011.95
2016-05-26T01:23:53.421Z,1011.96
2016-05-26T01:24:03.410Z,1011.95
2016-05-26T01:24:13.425Z,1011.94
2016-05-26T01:24:23.410Z,1011.93
2016-05-26T01:24:33.410Z,1011.93
2016-05-26T01:24:43.441Z,1011.97
2016-05-26T01:24:53.394Z,1011.94
2016-05-26T01:25:03.224Z,1011.96
2016-05-26T01:25:13.224Z,1012
2016-05-26T01:25:23.224Z,1011.94
2016-05-26T01:25:33.365Z,1011.94
2016-05-26T01:25:43.365Z,1011.95
2016-05-26T01:25:53.365Z,1011.95
2016-05-26T01:26:03.352Z,1011.92
2016-05-26T01:26:13.352Z,1011.92
2016-05-26T01:26:23.336Z,1011.95
2016-05-26T01:26:33.336Z,1011.91
2016-05-26T01:26:43.321Z,1011.92
2016-05-26T01:26:53.321Z,1011.95
2016-05-26T01:27:03.338Z,1011.93
2016-05-26T01:27:13.182Z,1011.92
2016-05-26T01:27:23.307Z,1011.94
2016-05-26T01:27:33.307Z,1011.93
2016-05-26T01:27:43.292Z,1011.97
2016-05-26T01:27:53.292Z,1011.96
2016-05-26T01:28:03.295Z,1011.96
2016-05-26T01:28:13.295Z,1011.94
2016-05-26T01:28:23.279Z,1011.94
2016-05-26T01:28:33.123Z,1011.94
2016-05-26T01:28:43.263Z,1011.93
2016-05-26T01:28:53.279Z,1011.93
2016-05-26T01:29:03.282Z,1011.94
2016-05-26T01:29:13.266Z,1011.92
2016-05-26T01:29:23.094Z,1011.93
2016-05-26T01:29:33.251Z,1011.92
2016-05-26T01:29:43.251Z,1011.93
2016-05-26T01:29:53.235Z,1011.91
2016-05-26T01:30:03.237Z,1011.9
2016-05-26T01:30:13.253Z,1011.93
2016-05-26T01:30:23.237Z,1011.9
2016-05-26T01:30:33.221Z,1011.95
2016-05-26T01:30:43.221Z,1011.89
2016-05-26T01:30:53.206Z,1011.92
2016-05-26T01:31:03.210Z,1011.93
2016-05-26T01:31:13.054Z,1011.87
2016-05-26T01:31:23.179Z,1011.9
2016-05-26T01:31:33.194Z,1011.88
2016-05-26T01:31:43.179Z,1011.89
2016-05-26T01:31:53.179Z,1011.91
2016-05-26T01:32:03.165Z,1011.9
2016-05-26T01:32:13.165Z,1011.92
2016-05-26T01:32:23.196Z,1011.88
2016-05-26T01:32:33.024Z,1011.91
2016-05-26T01:32:43.556Z,1011.9
2016-05-26T01:32:53.149Z,1011.92
2016-05-26T01:33:03.262Z,1011.9
2016-05-26T01:33:13.449Z,1011.87
2016-05-26T01:33:23.137Z,1011.95
2016-05-26T01:33:33.121Z,1011.92
2016-05-26T01:33:43.121Z,1011.91
2016-05-26T01:33:53.121Z,1011.88
2016-05-26T01:34:03.123Z,1011.86
2016-05-26T01:34:13.107Z,1011.9
2016-05-26T01:34:23.107Z,1011.89
2016-05-26T01:34:33.092Z,1011.88
2016-05-26T01:34:43.092Z,1011.87
2016-05-26T01:34:52.936Z,1011.88
2016-05-26T01:35:03.079Z,1011.88
2016-05-26T01:35:13.095Z,1011.89
2016-05-26T01:35:22.923Z,1011.85
2016-05-26T01:35:32.923Z,1011.87
2016-05-26T01:35:42.907Z,1011.88
2016-05-26T01:35:52.907Z,1011.88
2016-05-26T01:36:03.067Z,1011.86
2016-05-26T01:36:13.051Z,1011.86
2016-05-26T01:36:23.051Z,1011.85
2016-05-26T01:36:33.035Z,1011.88
2016-05-26T01:36:42.879Z,1011.82
2016-05-26T01:36:53.035Z,1011.85
2016-05-26T01:37:03.007Z,1011.87
2016-05-26T01:37:13.023Z,1011.86
2016-05-26T01:37:22.851Z,1011.86
2016-05-26T01:37:33.007Z,1011.84
2016-05-26T01:37:42.882Z,1011.86
2016-05-26T01:37:52.991Z,1011.87
2016-05-26T01:38:02.994Z,1011.88
2016-05-26T01:38:12.994Z,1011.83
2016-05-26T01:38:22.838Z,1011.91
2016-05-26T01:38:32.823Z,1011.85
2016-05-26T01:38:42.979Z,1011.84
2016-05-26T01:38:52.979Z,1011.85
2016-05-26T01:39:02.950Z,1011.83
2016-05-26T01:39:12.965Z,1011.87
2016-05-26T01:39:22.950Z,1011.87
2016-05-26T01:39:32.934Z,1011.87
2016-05-26T01:39:42.793Z,1011.87
2016-05-26T01:39:52.934Z,1011.87
2016-05-26T01:40:02.921Z,1011.9
2016-05-26T01:40:12.937Z,1011.87
2016-05-26T01:40:22.765Z,1011.89
2016-05-26T01:40:32.906Z,1011.93
2016-05-26T01:40:42.906Z,1011.92
2016-05-26T01:40:52.749Z,1011.89
2016-05-26T01:41:02.908Z,1011.92
2016-05-26T01:41:12.908Z,1011.91
2016-05-26T01:41:22.892Z,1011.87
2016-05-26T01:41:32.876Z,1011.91
2016-05-26T01:41:42.720Z,1011.92
2016-05-26T01:41:52.720Z,1011.91
2016-05-26T01:42:02.864Z,1011.9
2016-05-26T01:42:12.864Z,1011.88
2016-05-26T01:42:22.848Z,1011.89
2016-05-26T01:42:32.848Z,1011.88
2016-05-26T01:42:42.864Z,1011.85
2016-05-26T01:42:52.833Z,1011.88
2016-05-26T01:43:02.695Z,1011.88
2016-05-26T01:43:12.836Z,1011.92
2016-05-26T01:43:22.836Z,1011.9
2016-05-26T01:43:32.820Z,1011.9
2016-05-26T01:43:42.804Z,1011.89
2016-05-26T01:43:52.820Z,1011.87
2016-05-26T01:44:02.806Z,1011.9
2016-05-26T01:44:12.791Z,1011.92
2016-05-26T01:44:22.806Z,1011.9
2016-05-26T01:44:32.806Z,1011.92
2016-05-26T01:44:42.791Z,1011.9
2016-05-26T01:44:52.650Z,1011.93
2016-05-26T01:45:02.762Z,1011.9
2016-05-26T01:45:12.778Z,1011.92
2016-05-26T01:45:22.762Z,1011.89
2016-05-26T01:45:32.762Z,1011.94
2016-05-26T01:45:42.778Z,1011.9
2016-05-26T01:45:52.747Z,1011.88
2016-05-26T01:46:02.749Z,1011.91
2016-05-26T01:46:12.749Z,1011.91
2016-05-26T01:46:22.749Z,1011.89
2016-05-26T01:46:32.749Z,1011.9
2016-05-26T01:46:42.577Z,1011.91
2016-05-26T01:46:52.733Z,1011.92
2016-05-26T01:47:02.705Z,1011.89
2016-05-26T01:47:12.705Z,1011.89
2016-05-26T01:47:23.299Z,1011.85
2016-05-26T01:47:32.846Z,1011.89
2016-05-26T01:47:42.705Z,1011.9
2016-05-26T01:47:53.189Z,1011.91
2016-05-26T01:48:02.552Z,1011.89
2016-05-26T01:48:12.692Z,1011.88
2016-05-26T01:48:22.364Z,1011.92
2016-05-26T01:48:32.520Z,1011.89
2016-05-26T01:48:42.661Z,1011.88
2016-05-26T01:48:52.661Z,1011.91
2016-05-26T01:49:02.507Z,1011.89
2016-05-26T01:49:12.647Z,1011.92
2016-05-26T01:49:22.647Z,1011.88
2016-05-26T01:49:32.632Z,1011.91
2016-05-26T01:49:42.491Z,1011.91
2016-05-26T01:49:52.632Z,1011.88
2016-05-26T01:50:02.463Z,1011.86
2016-05-26T01:50:12.619Z,1011.91
2016-05-26T01:50:22.604Z,1011.87
2016-05-26T01:50:32.447Z,1011.88
2016-05-26T01:50:42.619Z,1011.93
2016-05-26T01:50:52.432Z,1011.93
2016-05-26T01:51:02.450Z,1011.95
2016-05-26T01:51:12.591Z,1011.93
2016-05-26T01:51:22.591Z,1011.91
2016-05-26T01:51:32.591Z,1011.91
2016-05-26T01:51:42.419Z,1011.92
2016-05-26T01:51:52.560Z,1011.91
2016-05-26T01:52:02.406Z,1011.89
2016-05-26T01:52:12.563Z,1011.91
2016-05-26T01:52:22.563Z,1011.94
2016-05-26T01:52:32.547Z,1011.9
2016-05-26T01:52:42.563Z,1011.95
2016-05-26T01:52:52.531Z,1011.92
2016-05-26T01:53:02.534Z,1011.91
2016-05-26T01:53:12.534Z,1011.9
2016-05-26T01:53:22.534Z,1011.9
2016-05-26T01:53:32.519Z,1011.93
2016-05-26T01:53:42.503Z,1011.89
2016-05-26T01:53:52.519Z,1011.92
2016-05-26T01:54:02.505Z,1011.92
2016-05-26T01:54:12.490Z,1011.96
2016-05-26T01:54:22.349Z,1011.93
2016-05-26T01:54:32.505Z,1011.93
2016-05-26T01:54:42.490Z,1011.93
2016-05-26T01:54:52.490Z,1011.93
2016-05-26T01:55:02.321Z,1011.96
2016-05-26T01:55:12.461Z,1011.94
2016-05-26T01:55:22.461Z,1011.91
2016-05-26T01:55:32.461Z,1011.92
2016-05-26T01:55:42.461Z,1011.93
2016-05-26T01:55:52.446Z,1011.96
2016-05-26T01:56:02.449Z,1011.91
2016-05-26T01:56:12.449Z,1011.94
2016-05-26T01:56:22.449Z,1011.95
2016-05-26T01:56:32.433Z,1011.95
2016-05-26T01:56:42.261Z,1011.92
2016-05-26T01:56:52.417Z,1011.93
2016-05-26T01:57:02.420Z,1011.94
2016-05-26T01:57:12.249Z,1011.95
2016-05-26T01:57:22.405Z,1011.95
2016-05-26T01:57:32.389Z,1011.96
2016-05-26T01:57:42.405Z,1011.92
2016-05-26T01:57:52.389Z,1011.95
2016-05-26T01:58:02.391Z,1011.95
2016-05-26T01:58:12.235Z,1011.97
2016-05-26T01:58:22.376Z,1011.92
2016-05-26T01:58:32.360Z,1011.97
2016-05-26T01:58:42.376Z,1011.94
2016-05-26T01:58:52.204Z,1011.99
2016-05-26T01:59:02.207Z,1011.95
2016-05-26T01:59:12.347Z,1011.97
2016-05-26T01:59:22.363Z,1011.94
2016-05-26T01:59:32.347Z,1011.93
2016-05-26T01:59:42.316Z,1011.96
2016-05-26T01:59:52.332Z,1011.95
2016-05-26T02:00:02.334Z,1011.98
2016-05-26T02:00:12.334Z,1012
2016-05-26T02:00:22.162Z,1011.96
2016-05-26T02:00:32.146Z,1011.97
2016-05-26T02:00:42.302Z,1011.95
2016-05-26T02:00:52.302Z,1011.94
2016-05-26T02:01:02.305Z,1011.99
2016-05-26T02:01:12.290Z,1011.93
2016-05-26T02:01:22.134Z,1011.93